sensor_id;sensor_type;location;lat;lon;timestamp;P1;durP1;ratioP1;P2;durP2;ratioP2
59424;SDS011;45231;44.826;20.312;2023-01-08T00:00:43;176.07;;;108.00;;
59424;SDS011;45231;44.826;20.312;2023-01-08T00:03:10;163.15;;;102.72;;
59424;SDS011;45231;44.826;20.312;2023-01-08T00:05:36;189.48;;;113.35;;
59424;SDS011;45231;44.826;20.312;2023-01-08T00:08:02;191.55;;;116.47;;
59424;SDS011;45231;44.826;20.312;2023-01-08T00:10:29;185.43;;;111.05;;
59424;SDS011;45231;44.826;20.312;2023-01-08T00:12:55;168.38;;;104.65;;
59424;SDS011;45231;44.826;20.312;2023-01-08T00:15:21;168.75;;;101.38;;
59424;SDS011;45231;44.826;20.312;2023-01-08T00:17:47;181.98;;;109.78;;
59424;SDS011;45231;44.826;20.312;2023-01-08T00:20:13;193.57;;;119.07;;
59424;SDS011;45231;44.826;20.312;2023-01-08T00:22:39;205.10;;;121.72;;
59424;SDS011;45231;44.826;20.312;2023-01-08T00:25:06;211.98;;;123.00;;
59424;SDS011;45231;44.826;20.312;2023-01-08T00:27:32;194.30;;;117.82;;
59424;SDS011;45231;44.826;20.312;2023-01-08T00:29:58;192.82;;;114.57;;
59424;SDS011;45231;44.826;20.312;2023-01-08T00:32:24;227.15;;;131.75;;
59424;SDS011;45231;44.826;20.312;2023-01-08T00:34:50;220.10;;;133.05;;
59424;SDS011;45231;44.826;20.312;2023-01-08T00:37:18;214.20;;;126.65;;
59424;SDS011;45231;44.826;20.312;2023-01-08T00:39:44;216.70;;;126.37;;
59424;SDS011;45231;44.826;20.312;2023-01-08T00:42:11;205.93;;;120.57;;
59424;SDS011;45231;44.826;20.312;2023-01-08T00:44:37;233.55;;;134.18;;
59424;SDS011;45231;44.826;20.312;2023-01-08T00:47:03;215.80;;;123.65;;
59424;SDS011;45231;44.826;20.312;2023-01-08T00:49:29;225.23;;;130.18;;
59424;SDS011;45231;44.826;20.312;2023-01-08T00:51:55;199.73;;;120.03;;
59424;SDS011;45231;44.826;20.312;2023-01-08T00:54:21;240.35;;;137.38;;
59424;SDS011;45231;44.826;20.312;2023-01-08T00:56:47;204.77;;;125.78;;
59424;SDS011;45231;44.826;20.312;2023-01-08T00:59:13;242.18;;;131.15;;
59424;SDS011;45231;44.826;20.312;2023-01-08T01:01:40;225.48;;;126.72;;
59424;SDS011;45231;44.826;20.312;2023-01-08T01:04:06;240.55;;;135.60;;
59424;SDS011;45231;44.826;20.312;2023-01-08T01:06:32;206.40;;;118.72;;
59424;SDS011;45231;44.826;20.312;2023-01-08T01:08:58;228.38;;;130.13;;
59424;SDS011;45231;44.826;20.312;2023-01-08T01:11:25;226.32;;;133.13;;
59424;SDS011;45231;44.826;20.312;2023-01-08T01:13:52;234.30;;;132.57;;
59424;SDS011;45231;44.826;20.312;2023-01-08T01:16:18;211.30;;;121.55;;
59424;SDS011;45231;44.826;20.312;2023-01-08T01:18:44;206.98;;;119.78;;
59424;SDS011;45231;44.826;20.312;2023-01-08T01:21:11;220.13;;;128.87;;
59424;SDS011;45231;44.826;20.312;2023-01-08T01:26:03;212.65;;;124.90;;
59424;SDS011;45231;44.826;20.312;2023-01-08T01:28:30;240.40;;;135.70;;
59424;SDS011;45231;44.826;20.312;2023-01-08T01:30:56;203.45;;;116.40;;
59424;SDS011;45231;44.826;20.312;2023-01-08T01:33:22;190.73;;;110.15;;
59424;SDS011;45231;44.826;20.312;2023-01-08T01:35:48;211.43;;;121.13;;
59424;SDS011;45231;44.826;20.312;2023-01-08T01:38:23;190.98;;;114.75;;
59424;SDS011;45231;44.826;20.312;2023-01-08T01:40:49;242.77;;;132.70;;
59424;SDS011;45231;44.826;20.312;2023-01-08T01:43:30;238.07;;;126.45;;
59424;SDS011;45231;44.826;20.312;2023-01-08T01:45:57;231.55;;;128.68;;
59424;SDS011;45231;44.826;20.312;2023-01-08T01:48:23;370.00;;;129.85;;
59424;SDS011;45231;44.826;20.312;2023-01-08T01:50:50;322.85;;;126.65;;
59424;SDS011;45231;44.826;20.312;2023-01-08T01:53:18;237.68;;;124.30;;
59424;SDS011;45231;44.826;20.312;2023-01-08T01:55:47;280.02;;;127.45;;
59424;SDS011;45231;44.826;20.312;2023-01-08T02:00:39;223.80;;;121.40;;
59424;SDS011;45231;44.826;20.312;2023-01-08T02:03:06;207.85;;;115.63;;
59424;SDS011;45231;44.826;20.312;2023-01-08T02:08:20;186.95;;;108.00;;
59424;SDS011;45231;44.826;20.312;2023-01-08T02:13:25;229.38;;;127.18;;
59424;SDS011;45231;44.826;20.312;2023-01-08T02:18:28;192.57;;;109.43;;
59424;SDS011;45231;44.826;20.312;2023-01-08T02:26:16;199.07;;;110.00;;
59424;SDS011;45231;44.826;20.312;2023-01-08T02:31:13;176.25;;;103.72;;
59424;SDS011;45231;44.826;20.312;2023-01-08T02:33:39;184.25;;;105.50;;
59424;SDS011;45231;44.826;20.312;2023-01-08T02:38:46;179.15;;;104.80;;
59424;SDS011;45231;44.826;20.312;2023-01-08T02:41:16;187.27;;;103.25;;
59424;SDS011;45231;44.826;20.312;2023-01-08T02:43:44;185.00;;;102.78;;
59424;SDS011;45231;44.826;20.312;2023-01-08T02:46:16;193.43;;;106.97;;
59424;SDS011;45231;44.826;20.312;2023-01-08T02:48:47;180.25;;;105.25;;
59424;SDS011;45231;44.826;20.312;2023-01-08T02:51:30;178.20;;;103.85;;
59424;SDS011;45231;44.826;20.312;2023-01-08T02:54:00;191.52;;;108.43;;
59424;SDS011;45231;44.826;20.312;2023-01-08T02:56:28;192.48;;;109.57;;
59424;SDS011;45231;44.826;20.312;2023-01-08T02:58:55;187.98;;;107.10;;
59424;SDS011;45231;44.826;20.312;2023-01-08T03:03:50;172.27;;;99.32;;
59424;SDS011;45231;44.826;20.312;2023-01-08T03:06:17;170.90;;;97.07;;
59424;SDS011;45231;44.826;20.312;2023-01-08T03:08:45;188.82;;;106.13;;
59424;SDS011;45231;44.826;20.312;2023-01-08T03:11:13;170.93;;;98.72;;
59424;SDS011;45231;44.826;20.312;2023-01-08T03:16:14;215.20;;;119.57;;
59424;SDS011;45231;44.826;20.312;2023-01-08T03:18:43;181.68;;;101.90;;
59424;SDS011;45231;44.826;20.312;2023-01-08T03:21:10;209.70;;;117.65;;
59424;SDS011;45231;44.826;20.312;2023-01-08T03:23:36;219.75;;;120.75;;
59424;SDS011;45231;44.826;20.312;2023-01-08T03:26:03;227.07;;;118.57;;
59424;SDS011;45231;44.826;20.312;2023-01-08T03:28:36;220.40;;;115.10;;
59424;SDS011;45231;44.826;20.312;2023-01-08T03:31:03;214.35;;;116.72;;
59424;SDS011;45231;44.826;20.312;2023-01-08T03:33:30;237.75;;;117.68;;
59424;SDS011;45231;44.826;20.312;2023-01-08T03:35:57;200.57;;;112.80;;
59424;SDS011;45231;44.826;20.312;2023-01-08T03:38:26;211.57;;;113.85;;
59424;SDS011;45231;44.826;20.312;2023-01-08T03:40:54;235.23;;;120.55;;
59424;SDS011;45231;44.826;20.312;2023-01-08T03:43:21;231.98;;;120.75;;
59424;SDS011;45231;44.826;20.312;2023-01-08T03:45:52;247.40;;;124.17;;
59424;SDS011;45231;44.826;20.312;2023-01-08T03:48:19;251.13;;;122.60;;
59424;SDS011;45231;44.826;20.312;2023-01-08T03:50:46;249.18;;;124.30;;
59424;SDS011;45231;44.826;20.312;2023-01-08T03:53:12;224.60;;;117.55;;
59424;SDS011;45231;44.826;20.312;2023-01-08T03:55:38;238.82;;;117.45;;
59424;SDS011;45231;44.826;20.312;2023-01-08T03:58:05;234.57;;;124.50;;
59424;SDS011;45231;44.826;20.312;2023-01-08T04:00:31;253.93;;;131.10;;
59424;SDS011;45231;44.826;20.312;2023-01-08T04:02:57;257.90;;;127.07;;
59424;SDS011;45231;44.826;20.312;2023-01-08T04:05:23;244.70;;;126.75;;
59424;SDS011;45231;44.826;20.312;2023-01-08T04:07:49;257.50;;;128.85;;
59424;SDS011;45231;44.826;20.312;2023-01-08T04:10:15;274.80;;;129.48;;
59424;SDS011;45231;44.826;20.312;2023-01-08T04:12:42;282.83;;;122.27;;
59424;SDS011;45231;44.826;20.312;2023-01-08T04:15:08;310.88;;;124.90;;
59424;SDS011;45231;44.826;20.312;2023-01-08T04:17:34;339.30;;;127.38;;
59424;SDS011;45231;44.826;20.312;2023-01-08T04:20:00;433.47;;;127.33;;
59424;SDS011;45231;44.826;20.312;2023-01-08T04:22:26;370.70;;;125.80;;
59424;SDS011;45231;44.826;20.312;2023-01-08T04:24:52;437.40;;;124.95;;
59424;SDS011;45231;44.826;20.312;2023-01-08T04:27:18;245.27;;;113.82;;
59424;SDS011;45231;44.826;20.312;2023-01-08T04:29:44;223.80;;;112.32;;
59424;SDS011;45231;44.826;20.312;2023-01-08T04:32:10;241.85;;;117.68;;
59424;SDS011;45231;44.826;20.312;2023-01-08T04:34:37;257.50;;;117.80;;
59424;SDS011;45231;44.826;20.312;2023-01-08T04:37:03;252.65;;;119.78;;
59424;SDS011;45231;44.826;20.312;2023-01-08T04:39:29;243.73;;;115.83;;
59424;SDS011;45231;44.826;20.312;2023-01-08T04:41:55;173.52;;;86.53;;
59424;SDS011;45231;44.826;20.312;2023-01-08T04:44:21;212.60;;;111.85;;
59424;SDS011;45231;44.826;20.312;2023-01-08T04:46:47;243.57;;;120.72;;
59424;SDS011;45231;44.826;20.312;2023-01-08T04:49:13;223.80;;;115.68;;
59424;SDS011;45231;44.826;20.312;2023-01-08T04:51:39;240.77;;;118.28;;
59424;SDS011;45231;44.826;20.312;2023-01-08T04:54:05;220.05;;;113.25;;
59424;SDS011;45231;44.826;20.312;2023-01-08T04:56:31;223.13;;;116.07;;
59424;SDS011;45231;44.826;20.312;2023-01-08T04:59:01;255.13;;;115.78;;
59424;SDS011;45231;44.826;20.312;2023-01-08T05:01:27;252.60;;;120.13;;
59424;SDS011;45231;44.826;20.312;2023-01-08T05:03:57;244.25;;;118.50;;
59424;SDS011;45231;44.826;20.312;2023-01-08T05:06:24;324.92;;;113.32;;
59424;SDS011;45231;44.826;20.312;2023-01-08T05:08:50;267.30;;;123.70;;
59424;SDS011;45231;44.826;20.312;2023-01-08T05:11:16;237.50;;;114.47;;
59424;SDS011;45231;44.826;20.312;2023-01-08T05:13:43;212.70;;;110.78;;
59424;SDS011;45231;44.826;20.312;2023-01-08T05:16:09;195.80;;;108.53;;
59424;SDS011;45231;44.826;20.312;2023-01-08T05:18:35;187.15;;;108.22;;
59424;SDS011;45231;44.826;20.312;2023-01-08T05:21:01;181.98;;;100.95;;
59424;SDS011;45231;44.826;20.312;2023-01-08T05:23:29;166.48;;;97.15;;
59424;SDS011;45231;44.826;20.312;2023-01-08T05:25:59;174.13;;;100.72;;
59424;SDS011;45231;44.826;20.312;2023-01-08T05:28:25;163.57;;;96.60;;
59424;SDS011;45231;44.826;20.312;2023-01-08T05:30:51;159.90;;;93.75;;
59424;SDS011;45231;44.826;20.312;2023-01-08T05:33:17;172.95;;;98.05;;
59424;SDS011;45231;44.826;20.312;2023-01-08T05:35:44;178.00;;;98.33;;
59424;SDS011;45231;44.826;20.312;2023-01-08T05:38:10;220.50;;;111.13;;
59424;SDS011;45231;44.826;20.312;2023-01-08T05:40:36;211.20;;;108.68;;
59424;SDS011;45231;44.826;20.312;2023-01-08T05:43:02;228.77;;;111.63;;
59424;SDS011;45231;44.826;20.312;2023-01-08T05:45:29;214.95;;;108.38;;
59424;SDS011;45231;44.826;20.312;2023-01-08T05:47:55;251.13;;;109.97;;
59424;SDS011;45231;44.826;20.312;2023-01-08T05:50:21;210.40;;;106.20;;
59424;SDS011;45231;44.826;20.312;2023-01-08T05:52:48;214.70;;;109.40;;
59424;SDS011;45231;44.826;20.312;2023-01-08T05:55:14;230.38;;;110.93;;
59424;SDS011;45231;44.826;20.312;2023-01-08T05:57:40;237.27;;;112.90;;
59424;SDS011;45231;44.826;20.312;2023-01-08T06:00:06;227.25;;;108.78;;
59424;SDS011;45231;44.826;20.312;2023-01-08T06:02:33;211.00;;;106.38;;
59424;SDS011;45231;44.826;20.312;2023-01-08T06:04:59;216.52;;;108.78;;
59424;SDS011;45231;44.826;20.312;2023-01-08T06:07:27;225.55;;;113.35;;
59424;SDS011;45231;44.826;20.312;2023-01-08T06:09:53;216.70;;;109.82;;
59424;SDS011;45231;44.826;20.312;2023-01-08T06:12:19;203.80;;;107.95;;
59424;SDS011;45231;44.826;20.312;2023-01-08T06:14:45;220.13;;;113.22;;
59424;SDS011;45231;44.826;20.312;2023-01-08T06:17:11;214.25;;;111.28;;
59424;SDS011;45231;44.826;20.312;2023-01-08T06:19:38;225.68;;;115.40;;
59424;SDS011;45231;44.826;20.312;2023-01-08T06:22:05;247.05;;;119.32;;
59424;SDS011;45231;44.826;20.312;2023-01-08T06:24:31;250.52;;;124.18;;
59424;SDS011;45231;44.826;20.312;2023-01-08T06:26:57;250.80;;;124.22;;
59424;SDS011;45231;44.826;20.312;2023-01-08T06:29:23;253.98;;;127.93;;
59424;SDS011;45231;44.826;20.312;2023-01-08T06:31:49;238.10;;;120.22;;
59424;SDS011;45231;44.826;20.312;2023-01-08T06:34:15;226.02;;;124.00;;
59424;SDS011;45231;44.826;20.312;2023-01-08T06:36:41;217.73;;;120.50;;
59424;SDS011;45231;44.826;20.312;2023-01-08T06:39:07;189.43;;;110.25;;
59424;SDS011;45231;44.826;20.312;2023-01-08T06:41:34;174.68;;;108.38;;
59424;SDS011;45231;44.826;20.312;2023-01-08T06:44:00;137.77;;;86.83;;
59424;SDS011;45231;44.826;20.312;2023-01-08T06:46:26;105.67;;;75.20;;
59424;SDS011;45231;44.826;20.312;2023-01-08T06:48:52;96.27;;;68.63;;
59424;SDS011;45231;44.826;20.312;2023-01-08T06:51:18;91.07;;;63.35;;
59424;SDS011;45231;44.826;20.312;2023-01-08T06:53:46;88.47;;;59.55;;
59424;SDS011;45231;44.826;20.312;2023-01-08T06:56:12;85.97;;;59.63;;
59424;SDS011;45231;44.826;20.312;2023-01-08T06:58:38;73.75;;;56.25;;
59424;SDS011;45231;44.826;20.312;2023-01-08T07:01:04;81.30;;;57.92;;
59424;SDS011;45231;44.826;20.312;2023-01-08T07:03:31;83.93;;;63.85;;
59424;SDS011;45231;44.826;20.312;2023-01-08T07:05:57;84.72;;;66.97;;
59424;SDS011;45231;44.826;20.312;2023-01-08T07:08:23;79.03;;;58.93;;
59424;SDS011;45231;44.826;20.312;2023-01-08T07:10:49;71.77;;;54.47;;
59424;SDS011;45231;44.826;20.312;2023-01-08T07:13:15;72.57;;;56.43;;
59424;SDS011;45231;44.826;20.312;2023-01-08T07:15:41;69.43;;;56.55;;
59424;SDS011;45231;44.826;20.312;2023-01-08T07:18:09;75.13;;;56.42;;
59424;SDS011;45231;44.826;20.312;2023-01-08T07:20:35;82.25;;;60.65;;
59424;SDS011;45231;44.826;20.312;2023-01-08T07:23:02;100.80;;;71.50;;
59424;SDS011;45231;44.826;20.312;2023-01-08T07:25:28;78.10;;;57.15;;
59424;SDS011;45231;44.826;20.312;2023-01-08T07:27:55;67.55;;;56.78;;
59424;SDS011;45231;44.826;20.312;2023-01-08T07:32:47;68.53;;;55.28;;
59424;SDS011;45231;44.826;20.312;2023-01-08T07:35:13;60.97;;;52.75;;
59424;SDS011;45231;44.826;20.312;2023-01-08T07:37:40;61.38;;;52.55;;
59424;SDS011;45231;44.826;20.312;2023-01-08T07:40:07;63.70;;;54.25;;
59424;SDS011;45231;44.826;20.312;2023-01-08T07:42:33;60.00;;;53.20;;
59424;SDS011;45231;44.826;20.312;2023-01-08T07:45:00;60.35;;;53.67;;
59424;SDS011;45231;44.826;20.312;2023-01-08T07:47:26;61.58;;;53.38;;
59424;SDS011;45231;44.826;20.312;2023-01-08T07:49:52;63.85;;;54.15;;
59424;SDS011;45231;44.826;20.312;2023-01-08T07:52:18;57.42;;;51.08;;
59424;SDS011;45231;44.826;20.312;2023-01-08T07:54:44;56.53;;;49.38;;
59424;SDS011;45231;44.826;20.312;2023-01-08T07:57:10;59.08;;;50.42;;
59424;SDS011;45231;44.826;20.312;2023-01-08T07:59:36;53.83;;;47.92;;
59424;SDS011;45231;44.826;20.312;2023-01-08T08:02:02;57.63;;;51.33;;
59424;SDS011;45231;44.826;20.312;2023-01-08T08:04:29;63.78;;;56.72;;
59424;SDS011;45231;44.826;20.312;2023-01-08T08:06:55;66.22;;;58.10;;
59424;SDS011;45231;44.826;20.312;2023-01-08T08:09:22;61.40;;;54.70;;
59424;SDS011;45231;44.826;20.312;2023-01-08T08:11:48;60.95;;;53.15;;
59424;SDS011;45231;44.826;20.312;2023-01-08T08:14:14;58.33;;;51.88;;
59424;SDS011;45231;44.826;20.312;2023-01-08T08:16:40;57.45;;;51.20;;
59424;SDS011;45231;44.826;20.312;2023-01-08T08:19:06;57.65;;;51.38;;
59424;SDS011;45231;44.826;20.312;2023-01-08T08:21:32;57.17;;;50.85;;
59424;SDS011;45231;44.826;20.312;2023-01-08T08:23:58;57.05;;;50.33;;
59424;SDS011;45231;44.826;20.312;2023-01-08T08:26:24;56.05;;;49.15;;
59424;SDS011;45231;44.826;20.312;2023-01-08T08:28:50;55.15;;;48.45;;
59424;SDS011;45231;44.826;20.312;2023-01-08T08:31:16;51.28;;;45.85;;
59424;SDS011;45231;44.826;20.312;2023-01-08T08:33:42;54.72;;;47.38;;
59424;SDS011;45231;44.826;20.312;2023-01-08T08:36:08;47.97;;;42.88;;
59424;SDS011;45231;44.826;20.312;2023-01-08T08:38:35;48.75;;;43.53;;
59424;SDS011;45231;44.826;20.312;2023-01-08T08:41:01;49.00;;;43.78;;
59424;SDS011;45231;44.826;20.312;2023-01-08T08:45:54;51.65;;;46.17;;
59424;SDS011;45231;44.826;20.312;2023-01-08T08:48:21;49.25;;;44.08;;
59424;SDS011;45231;44.826;20.312;2023-01-08T08:50:47;61.38;;;42.70;;
59424;SDS011;45231;44.826;20.312;2023-01-08T08:53:13;48.28;;;43.17;;
59424;SDS011;45231;44.826;20.312;2023-01-08T08:58:06;47.03;;;42.13;;
59424;SDS011;45231;44.826;20.312;2023-01-08T09:00:34;48.70;;;43.42;;
59424;SDS011;45231;44.826;20.312;2023-01-08T09:05:26;43.72;;;38.95;;
59424;SDS011;45231;44.826;20.312;2023-01-08T09:07:52;44.83;;;39.53;;
59424;SDS011;45231;44.826;20.312;2023-01-08T09:10:19;43.83;;;39.22;;
59424;SDS011;45231;44.826;20.312;2023-01-08T09:12:45;43.80;;;39.17;;
59424;SDS011;45231;44.826;20.312;2023-01-08T09:17:37;44.10;;;39.33;;
59424;SDS011;45231;44.826;20.312;2023-01-08T09:20:04;46.10;;;40.90;;
59424;SDS011;45231;44.826;20.312;2023-01-08T09:22:30;47.20;;;41.58;;
59424;SDS011;45231;44.826;20.312;2023-01-08T09:24:56;42.75;;;38.05;;
59424;SDS011;45231;44.826;20.312;2023-01-08T09:27:22;41.63;;;36.95;;
59424;SDS011;45231;44.826;20.312;2023-01-08T09:29:48;43.35;;;38.60;;
59424;SDS011;45231;44.826;20.312;2023-01-08T09:32:14;40.88;;;34.53;;
59424;SDS011;45231;44.826;20.312;2023-01-08T09:34:40;45.33;;;36.53;;
59424;SDS011;45231;44.826;20.312;2023-01-08T09:37:06;46.25;;;37.17;;
59424;SDS011;45231;44.826;20.312;2023-01-08T09:39:32;44.83;;;35.83;;
59424;SDS011;45231;44.826;20.312;2023-01-08T09:42:03;43.33;;;36.03;;
59424;SDS011;45231;44.826;20.312;2023-01-08T09:44:31;37.20;;;32.28;;
59424;SDS011;45231;44.826;20.312;2023-01-08T09:46:58;40.15;;;32.00;;
59424;SDS011;45231;44.826;20.312;2023-01-08T09:49:25;38.42;;;31.23;;
59424;SDS011;45231;44.826;20.312;2023-01-08T09:51:53;38.08;;;30.90;;
59424;SDS011;45231;44.826;20.312;2023-01-08T09:54:19;36.90;;;30.20;;
59424;SDS011;45231;44.826;20.312;2023-01-08T09:56:47;43.08;;;31.92;;
59424;SDS011;45231;44.826;20.312;2023-01-08T09:59:15;38.17;;;30.77;;
59424;SDS011;45231;44.826;20.312;2023-01-08T10:01:41;36.75;;;29.77;;
59424;SDS011;45231;44.826;20.312;2023-01-08T10:06:36;37.80;;;30.55;;
59424;SDS011;45231;44.826;20.312;2023-01-08T10:09:02;42.88;;;33.35;;
59424;SDS011;45231;44.826;20.312;2023-01-08T10:11:31;42.53;;;33.10;;
59424;SDS011;45231;44.826;20.312;2023-01-08T10:13:58;39.30;;;33.47;;
59424;SDS011;45231;44.826;20.312;2023-01-08T10:18:50;39.20;;;32.97;;
59424;SDS011;45231;44.826;20.312;2023-01-08T10:21:16;42.85;;;33.20;;
59424;SDS011;45231;44.826;20.312;2023-01-08T10:23:51;38.47;;;31.50;;
59424;SDS011;45231;44.826;20.312;2023-01-08T10:26:31;36.60;;;29.75;;
59424;SDS011;45231;44.826;20.312;2023-01-08T10:36:52;35.22;;;28.17;;
59424;SDS011;45231;44.826;20.312;2023-01-08T10:39:22;39.00;;;31.13;;
59424;SDS011;45231;44.826;20.312;2023-01-08T10:41:50;36.17;;;27.38;;
59424;SDS011;45231;44.826;20.312;2023-01-08T10:44:17;35.85;;;28.65;;
59424;SDS011;45231;44.826;20.312;2023-01-08T10:46:45;35.05;;;29.38;;
59424;SDS011;45231;44.826;20.312;2023-01-08T10:49:23;38.78;;;30.45;;
59424;SDS011;45231;44.826;20.312;2023-01-08T10:51:52;38.00;;;29.25;;
59424;SDS011;45231;44.826;20.312;2023-01-08T10:54:25;33.42;;;25.70;;
59424;SDS011;45231;44.826;20.312;2023-01-08T10:56:52;31.17;;;24.88;;
59424;SDS011;45231;44.826;20.312;2023-01-08T10:59:21;34.83;;;26.48;;
59424;SDS011;45231;44.826;20.312;2023-01-08T11:01:55;30.58;;;24.38;;
59424;SDS011;45231;44.826;20.312;2023-01-08T11:04:29;32.08;;;22.70;;
59424;SDS011;45231;44.826;20.312;2023-01-08T11:09:47;31.35;;;22.15;;
59424;SDS011;45231;44.826;20.312;2023-01-08T11:14:50;29.17;;;22.45;;
59424;SDS011;45231;44.826;20.312;2023-01-08T11:17:16;30.92;;;23.27;;
59424;SDS011;45231;44.826;20.312;2023-01-08T11:19:42;29.85;;;22.85;;
59424;SDS011;45231;44.826;20.312;2023-01-08T11:22:21;28.85;;;22.58;;
59424;SDS011;45231;44.826;20.312;2023-01-08T11:24:48;27.60;;;21.70;;
59424;SDS011;45231;44.826;20.312;2023-01-08T11:27:15;30.83;;;22.73;;
59424;SDS011;45231;44.826;20.312;2023-01-08T11:29:44;26.98;;;21.15;;
59424;SDS011;45231;44.826;20.312;2023-01-08T11:37:13;30.00;;;21.73;;
59424;SDS011;45231;44.826;20.312;2023-01-08T11:39:44;29.60;;;21.95;;
59424;SDS011;45231;44.826;20.312;2023-01-08T11:44:43;29.55;;;22.27;;
59424;SDS011;45231;44.826;20.312;2023-01-08T12:15:19;22.17;;;15.10;;
59424;SDS011;45231;44.826;20.312;2023-01-08T12:20:45;16.48;;;11.98;;
59424;SDS011;45231;44.826;20.312;2023-01-08T12:28:41;13.35;;;9.55;;
59424;SDS011;45231;44.826;20.312;2023-01-08T12:31:20;14.95;;;10.38;;
59424;SDS011;45231;44.826;20.312;2023-01-08T12:33:53;16.25;;;10.52;;
59424;SDS011;45231;44.826;20.312;2023-01-08T12:36:26;14.00;;;8.98;;
59424;SDS011;45231;44.826;20.312;2023-01-08T12:38:56;14.10;;;8.80;;
59424;SDS011;45231;44.826;20.312;2023-01-08T12:41:23;11.65;;;7.28;;
59424;SDS011;45231;44.826;20.312;2023-01-08T12:46:16;12.00;;;8.05;;
59424;SDS011;45231;44.826;20.312;2023-01-08T12:48:44;12.95;;;7.55;;
59424;SDS011;45231;44.826;20.312;2023-01-08T12:53:51;12.35;;;7.93;;
59424;SDS011;45231;44.826;20.312;2023-01-08T12:56:24;12.70;;;7.43;;
59424;SDS011;45231;44.826;20.312;2023-01-08T13:03:46;12.30;;;7.47;;
59424;SDS011;45231;44.826;20.312;2023-01-08T13:06:13;11.98;;;7.65;;
59424;SDS011;45231;44.826;20.312;2023-01-08T13:08:40;13.02;;;7.97;;
59424;SDS011;45231;44.826;20.312;2023-01-08T13:11:07;12.07;;;7.78;;
59424;SDS011;45231;44.826;20.312;2023-01-08T13:13:34;16.77;;;11.75;;
59424;SDS011;45231;44.826;20.312;2023-01-08T13:16:05;14.40;;;8.23;;
59424;SDS011;45231;44.826;20.312;2023-01-08T13:18:31;11.95;;;7.40;;
59424;SDS011;45231;44.826;20.312;2023-01-08T13:20:58;17.67;;;7.30;;
59424;SDS011;45231;44.826;20.312;2023-01-08T13:23:26;10.85;;;7.07;;
59424;SDS011;45231;44.826;20.312;2023-01-08T13:25:53;12.70;;;7.38;;
59424;SDS011;45231;44.826;20.312;2023-01-08T13:33:46;12.25;;;8.10;;
59424;SDS011;45231;44.826;20.312;2023-01-08T13:38:58;11.10;;;6.95;;
59424;SDS011;45231;44.826;20.312;2023-01-08T13:41:25;12.38;;;7.40;;
59424;SDS011;45231;44.826;20.312;2023-01-08T13:46:37;12.63;;;8.65;;
59424;SDS011;45231;44.826;20.312;2023-01-08T13:52:23;15.70;;;11.05;;
59424;SDS011;45231;44.826;20.312;2023-01-08T13:54:51;15.30;;;10.68;;
59424;SDS011;45231;44.826;20.312;2023-01-08T13:57:17;15.85;;;10.00;;
59424;SDS011;45231;44.826;20.312;2023-01-08T13:59:54;15.65;;;10.48;;
59424;SDS011;45231;44.826;20.312;2023-01-08T14:04:48;14.25;;;10.07;;
59424;SDS011;45231;44.826;20.312;2023-01-08T14:07:14;18.10;;;11.45;;
59424;SDS011;45231;44.826;20.312;2023-01-08T14:09:40;17.23;;;12.18;;
59424;SDS011;45231;44.826;20.312;2023-01-08T14:12:08;17.67;;;11.90;;
59424;SDS011;45231;44.826;20.312;2023-01-08T14:14:38;22.67;;;12.88;;
59424;SDS011;45231;44.826;20.312;2023-01-08T14:17:04;17.25;;;11.25;;
59424;SDS011;45231;44.826;20.312;2023-01-08T14:21:57;21.02;;;12.25;;
59424;SDS011;45231;44.826;20.312;2023-01-08T14:24:25;15.30;;;10.90;;
59424;SDS011;45231;44.826;20.312;2023-01-08T14:29:21;16.80;;;10.45;;
59424;SDS011;45231;44.826;20.312;2023-01-08T14:31:49;16.58;;;11.15;;
59424;SDS011;45231;44.826;20.312;2023-01-08T14:34:22;20.45;;;12.13;;
59424;SDS011;45231;44.826;20.312;2023-01-08T14:36:50;21.83;;;12.10;;
59424;SDS011;45231;44.826;20.312;2023-01-08T14:41:42;33.92;;;23.50;;
59424;SDS011;45231;44.826;20.312;2023-01-08T14:44:26;24.88;;;16.27;;
59424;SDS011;45231;44.826;20.312;2023-01-08T14:46:54;24.80;;;17.30;;
59424;SDS011;45231;44.826;20.312;2023-01-08T14:49:25;27.17;;;18.27;;
59424;SDS011;45231;44.826;20.312;2023-01-08T14:51:52;30.45;;;19.95;;
59424;SDS011;45231;44.826;20.312;2023-01-08T14:54:19;27.17;;;19.50;;
59424;SDS011;45231;44.826;20.312;2023-01-08T14:56:48;27.83;;;19.55;;
59424;SDS011;45231;44.826;20.312;2023-01-08T14:59:16;26.25;;;18.20;;
59424;SDS011;45231;44.826;20.312;2023-01-08T15:01:48;28.65;;;19.10;;
59424;SDS011;45231;44.826;20.312;2023-01-08T15:04:17;29.17;;;19.65;;
59424;SDS011;45231;44.826;20.312;2023-01-08T15:06:43;29.10;;;20.52;;
59424;SDS011;45231;44.826;20.312;2023-01-08T15:09:32;31.75;;;21.23;;
59424;SDS011;45231;44.826;20.312;2023-01-08T15:12:04;31.27;;;22.58;;
59424;SDS011;45231;44.826;20.312;2023-01-08T15:14:31;31.13;;;21.50;;
59424;SDS011;45231;44.826;20.312;2023-01-08T15:17:19;40.28;;;24.95;;
59424;SDS011;45231;44.826;20.312;2023-01-08T15:19:52;39.67;;;25.52;;
59424;SDS011;45231;44.826;20.312;2023-01-08T15:22:21;40.45;;;25.60;;
59424;SDS011;45231;44.826;20.312;2023-01-08T15:24:57;34.42;;;24.23;;
59424;SDS011;45231;44.826;20.312;2023-01-08T15:27:24;37.10;;;25.25;;
59424;SDS011;45231;44.826;20.312;2023-01-08T15:29:52;36.90;;;26.30;;
59424;SDS011;45231;44.826;20.312;2023-01-08T15:32:26;39.83;;;27.45;;
59424;SDS011;45231;44.826;20.312;2023-01-08T15:34:52;42.15;;;29.13;;
59424;SDS011;45231;44.826;20.312;2023-01-08T15:37:18;54.60;;;34.87;;
59424;SDS011;45231;44.826;20.312;2023-01-08T15:39:44;63.37;;;41.67;;
59424;SDS011;45231;44.826;20.312;2023-01-08T15:42:20;66.50;;;40.33;;
59424;SDS011;45231;44.826;20.312;2023-01-08T15:45:27;58.85;;;39.33;;
59424;SDS011;45231;44.826;20.312;2023-01-08T15:47:52;49.90;;;31.55;;
59424;SDS011;45231;44.826;20.312;2023-01-08T15:50:18;41.15;;;29.73;;
59424;SDS011;45231;44.826;20.312;2023-01-08T15:52:44;44.70;;;27.90;;
59424;SDS011;45231;44.826;20.312;2023-01-08T15:55:29;45.88;;;26.83;;
59424;SDS011;45231;44.826;20.312;2023-01-08T15:57:56;42.58;;;28.80;;
59424;SDS011;45231;44.826;20.312;2023-01-08T16:00:22;42.80;;;28.80;;
59424;SDS011;45231;44.826;20.312;2023-01-08T16:02:49;42.83;;;28.83;;
59424;SDS011;45231;44.826;20.312;2023-01-08T16:07:41;45.72;;;29.45;;
59424;SDS011;45231;44.826;20.312;2023-01-08T16:10:10;44.80;;;28.90;;
59424;SDS011;45231;44.826;20.312;2023-01-08T16:12:36;44.53;;;29.17;;
59424;SDS011;45231;44.826;20.312;2023-01-08T16:15:02;46.70;;;28.45;;
59424;SDS011;45231;44.826;20.312;2023-01-08T16:17:31;50.72;;;30.70;;
59424;SDS011;45231;44.826;20.312;2023-01-08T16:19:58;43.28;;;29.77;;